sensor_id;sensor_type;location;lat;lon;timestamp;temperature;humidity
2226;DHT22;1119;48.288;8.726;2022-07-06T00:01:29;19.30;53.90
2226;DHT22;1119;48.288;8.726;2022-07-06T00:03:56;19.20;54.40
2226;DHT22;1119;48.288;8.726;2022-07-06T00:06:24;19.10;54.60
2226;DHT22;1119;48.288;8.726;2022-07-06T00:08:51;19.10;55.00
2226;DHT22;1119;48.288;8.726;2022-07-06T00:11:18;19.10;55.30
2226;DHT22;1119;48.288;8.726;2022-07-06T00:13:45;19.00;55.50
2226;DHT22;1119;48.288;8.726;2022-07-06T00:16:13;19.00;55.80
2226;DHT22;1119;48.288;8.726;2022-07-06T00:18:41;18.90;56.00
2226;DHT22;1119;48.288;8.726;2022-07-06T00:21:08;18.90;56.40
2226;DHT22;1119;48.288;8.726;2022-07-06T00:23:36;18.80;56.50
2226;DHT22;1119;48.288;8.726;2022-07-06T00:26:03;18.70;56.90
2226;DHT22;1119;48.288;8.726;2022-07-06T00:28:31;18.70;57.20
2226;DHT22;1119;48.288;8.726;2022-07-06T00:30:58;18.70;57.20
2226;DHT22;1119;48.288;8.726;2022-07-06T00:33:25;18.70;57.70
2226;DHT22;1119;48.288;8.726;2022-07-06T00:35:54;18.60;57.40
2226;DHT22;1119;48.288;8.726;2022-07-06T00:38:21;18.60;57.60
2226;DHT22;1119;48.288;8.726;2022-07-06T00:40:48;18.50;57.80
2226;DHT22;1119;48.288;8.726;2022-07-06T00:43:15;18.50;57.90
2226;DHT22;1119;48.288;8.726;2022-07-06T00:45:42;18.40;58.00
2226;DHT22;1119;48.288;8.726;2022-07-06T00:48:10;18.40;58.20
2226;DHT22;1119;48.288;8.726;2022-07-06T00:50:38;18.30;58.20
2226;DHT22;1119;48.288;8.726;2022-07-06T00:53:07;18.30;58.60
2226;DHT22;1119;48.288;8.726;2022-07-06T00:55:36;18.20;59.00
2226;DHT22;1119;48.288;8.726;2022-07-06T00:58:06;18.10;59.30
2226;DHT22;1119;48.288;8.726;2022-07-06T01:00:34;18.10;59.20
2226;DHT22;1119;48.288;8.726;2022-07-06T01:03:02;18.10;59.60
2226;DHT22;1119;48.288;8.726;2022-07-06T01:05:30;18.10;59.60
2226;DHT22;1119;48.288;8.726;2022-07-06T01:07:57;18.00;59.50
2226;DHT22;1119;48.288;8.726;2022-07-06T01:10:27;18.10;59.50
2226;DHT22;1119;48.288;8.726;2022-07-06T01:12:56;18.10;59.50
2226;DHT22;1119;48.288;8.726;2022-07-06T01:15:25;18.10;59.30
2226;DHT22;1119;48.288;8.726;2022-07-06T01:17:53;18.10;59.40
2226;DHT22;1119;48.288;8.726;2022-07-06T01:20:29;18.10;59.60
2226;DHT22;1119;48.288;8.726;2022-07-06T01:22:59;18.10;59.50
2226;DHT22;1119;48.288;8.726;2022-07-06T01:25:26;18.10;59.50
2226;DHT22;1119;48.288;8.726;2022-07-06T01:27:54;18.20;59.70
2226;DHT22;1119;48.288;8.726;2022-07-06T01:30:21;18.20;59.70
2226;DHT22;1119;48.288;8.726;2022-07-06T01:32:48;18.30;59.80
2226;DHT22;1119;48.288;8.726;2022-07-06T01:35:15;18.30;59.40
2226;DHT22;1119;48.288;8.726;2022-07-06T01:37:44;18.30;59.20
2226;DHT22;1119;48.288;8.726;2022-07-06T01:40:13;18.20;59.20
2226;DHT22;1119;48.288;8.726;2022-07-06T01:42:40;18.20;59.40
2226;DHT22;1119;48.288;8.726;2022-07-06T01:45:08;18.20;59.60
2226;DHT22;1119;48.288;8.726;2022-07-06T01:47:37;18.10;59.70
2226;DHT22;1119;48.288;8.726;2022-07-06T01:50:07;18.10;59.90
2226;DHT22;1119;48.288;8.726;2022-07-06T01:52:39;18.10;60.00
2226;DHT22;1119;48.288;8.726;2022-07-06T01:55:08;18.10;60.10
2226;DHT22;1119;48.288;8.726;2022-07-06T01:57:37;18.00;60.00
2226;DHT22;1119;48.288;8.726;2022-07-06T02:00:06;18.00;60.20
2226;DHT22;1119;48.288;8.726;2022-07-06T02:02:44;18.00;60.00
2226;DHT22;1119;48.288;8.726;2022-07-06T02:05:11;17.90;60.20
2226;DHT22;1119;48.288;8.726;2022-07-06T02:07:39;17.90;60.30
2226;DHT22;1119;48.288;8.726;2022-07-06T02:10:09;17.80;60.60
2226;DHT22;1119;48.288;8.726;2022-07-06T02:12:36;17.80;60.60
2226;DHT22;1119;48.288;8.726;2022-07-06T02:15:04;17.80;60.60
2226;DHT22;1119;48.288;8.726;2022-07-06T02:17:31;17.70;60.70
2226;DHT22;1119;48.288;8.726;2022-07-06T02:19:59;17.70;60.90
2226;DHT22;1119;48.288;8.726;2022-07-06T02:22:26;17.70;61.00
2226;DHT22;1119;48.288;8.726;2022-07-06T02:24:53;17.60;61.10
2226;DHT22;1119;48.288;8.726;2022-07-06T02:27:22;17.60;61.20
2226;DHT22;1119;48.288;8.726;2022-07-06T02:29:52;17.60;61.20
2226;DHT22;1119;48.288;8.726;2022-07-06T02:32:19;17.60;61.10
2226;DHT22;1119;48.288;8.726;2022-07-06T02:34:46;17.60;61.20
2226;DHT22;1119;48.288;8.726;2022-07-06T02:37:14;17.60;61.20
2226;DHT22;1119;48.288;8.726;2022-07-06T02:39:41;17.50;61.20
2226;DHT22;1119;48.288;8.726;2022-07-06T02:42:09;17.50;61.50
2226;DHT22;1119;48.288;8.726;2022-07-06T02:44:37;17.50;61.80
2226;DHT22;1119;48.288;8.726;2022-07-06T02:47:04;17.40;61.80
2226;DHT22;1119;48.288;8.726;2022-07-06T02:49:32;17.50;61.80
2226;DHT22;1119;48.288;8.726;2022-07-06T02:52:00;17.40;62.20
2226;DHT22;1119;48.288;8.726;2022-07-06T02:54:27;17.30;62.60
2226;DHT22;1119;48.288;8.726;2022-07-06T02:56:54;17.40;62.80
2226;DHT22;1119;48.288;8.726;2022-07-06T02:59:21;17.30;62.70
2226;DHT22;1119;48.288;8.726;2022-07-06T03:01:52;17.30;62.90
2226;DHT22;1119;48.288;8.726;2022-07-06T03:04:20;17.30;63.10
2226;DHT22;1119;48.288;8.726;2022-07-06T03:06:47;17.30;63.20
2226;DHT22;1119;48.288;8.726;2022-07-06T03:09:15;17.30;63.30
2226;DHT22;1119;48.288;8.726;2022-07-06T03:11:42;17.30;63.60
2226;DHT22;1119;48.288;8.726;2022-07-06T03:14:10;17.20;63.50
2226;DHT22;1119;48.288;8.726;2022-07-06T03:16:41;17.20;63.60
2226;DHT22;1119;48.288;8.726;2022-07-06T03:19:09;17.20;63.70
2226;DHT22;1119;48.288;8.726;2022-07-06T03:21:36;17.30;63.60
2226;DHT22;1119;48.288;8.726;2022-07-06T03:24:04;17.30;63.50
2226;DHT22;1119;48.288;8.726;2022-07-06T03:26:32;17.30;63.90
2226;DHT22;1119;48.288;8.726;2022-07-06T03:28:59;17.20;63.50
2226;DHT22;1119;48.288;8.726;2022-07-06T03:31:26;17.20;63.70
2226;DHT22;1119;48.288;8.726;2022-07-06T03:33:53;17.20;63.90
2226;DHT22;1119;48.288;8.726;2022-07-06T03:36:22;17.20;64.10
2226;DHT22;1119;48.288;8.726;2022-07-06T03:38:51;17.20;64.20
2226;DHT22;1119;48.288;8.726;2022-07-06T03:41:18;17.20;64.10
2226;DHT22;1119;48.288;8.726;2022-07-06T03:43:46;17.20;64.60
2226;DHT22;1119;48.288;8.726;2022-07-06T03:46:13;17.10;64.60
2226;DHT22;1119;48.288;8.726;2022-07-06T03:48:41;17.20;64.40
2226;DHT22;1119;48.288;8.726;2022-07-06T03:51:08;17.20;64.10
2226;DHT22;1119;48.288;8.726;2022-07-06T03:53:38;17.10;63.90
2226;DHT22;1119;48.288;8.726;2022-07-06T03:56:05;17.10;64.00
2226;DHT22;1119;48.288;8.726;2022-07-06T03:58:50;17.10;64.20
2226;DHT22;1119;48.288;8.726;2022-07-06T04:01:18;17.00;64.90
2226;DHT22;1119;48.288;8.726;2022-07-06T04:03:45;16.90;65.00
2226;DHT22;1119;48.288;8.726;2022-07-06T04:06:13;16.90;66.50
2226;DHT22;1119;48.288;8.726;2022-07-06T04:08:42;16.90;65.80
2226;DHT22;1119;48.288;8.726;2022-07-06T04:11:10;16.80;66.10
2226;DHT22;1119;48.288;8.726;2022-07-06T04:13:37;16.80;66.00
2226;DHT22;1119;48.288;8.726;2022-07-06T04:16:05;16.80;65.90
2226;DHT22;1119;48.288;8.726;2022-07-06T04:18:33;16.80;66.70
2226;DHT22;1119;48.288;8.726;2022-07-06T04:21:01;16.70;67.50
2226;DHT22;1119;48.288;8.726;2022-07-06T04:23:30;16.70;67.20
2226;DHT22;1119;48.288;8.726;2022-07-06T04:25:59;16.80;67.00
2226;DHT22;1119;48.288;8.726;2022-07-06T04:28:30;16.70;66.90
2226;DHT22;1119;48.288;8.726;2022-07-06T04:30:57;16.70;67.00
2226;DHT22;1119;48.288;8.726;2022-07-06T04:33:25;16.80;67.40
2226;DHT22;1119;48.288;8.726;2022-07-06T04:35:52;16.90;67.00
2226;DHT22;1119;48.288;8.726;2022-07-06T04:38:23;16.90;66.80
2226;DHT22;1119;48.288;8.726;2022-07-06T04:40:52;16.90;67.30
2226;DHT22;1119;48.288;8.726;2022-07-06T04:43:21;16.90;68.50
2226;DHT22;1119;48.288;8.726;2022-07-06T04:45:48;17.00;68.90
2226;DHT22;1119;48.288;8.726;2022-07-06T04:48:16;17.00;68.60
2226;DHT22;1119;48.288;8.726;2022-07-06T04:50:43;17.00;68.40
2226;DHT22;1119;48.288;8.726;2022-07-06T04:53:16;17.10;68.20
2226;DHT22;1119;48.288;8.726;2022-07-06T04:55:43;17.10;68.30
2226;DHT22;1119;48.288;8.726;2022-07-06T04:58:10;17.10;68.70
2226;DHT22;1119;48.288;8.726;2022-07-06T05:00:39;17.10;69.60
2226;DHT22;1119;48.288;8.726;2022-07-06T05:03:06;17.10;69.70
2226;DHT22;1119;48.288;8.726;2022-07-06T05:05:34;17.10;70.90
2226;DHT22;1119;48.288;8.726;2022-07-06T05:08:01;17.00;69.60
2226;DHT22;1119;48.288;8.726;2022-07-06T05:10:29;17.10;69.90
2226;DHT22;1119;48.288;8.726;2022-07-06T05:12:57;17.10;70.90
2226;DHT22;1119;48.288;8.726;2022-07-06T05:15:26;17.10;71.40
2226;DHT22;1119;48.288;8.726;2022-07-06T05:17:55;17.20;70.70
2226;DHT22;1119;48.288;8.726;2022-07-06T05:20:22;17.20;70.60
2226;DHT22;1119;48.288;8.726;2022-07-06T05:22:50;17.10;73.10
2226;DHT22;1119;48.288;8.726;2022-07-06T05:25:21;17.10;74.60
2226;DHT22;1119;48.288;8.726;2022-07-06T05:27:49;17.10;71.80
2226;DHT22;1119;48.288;8.726;2022-07-06T05:30:17;17.20;71.80
2226;DHT22;1119;48.288;8.726;2022-07-06T05:32:44;17.10;71.40
2226;DHT22;1119;48.288;8.726;2022-07-06T05:35:12;17.10;71.10
2226;DHT22;1119;48.288;8.726;2022-07-06T05:37:39;17.00;71.50
2226;DHT22;1119;48.288;8.726;2022-07-06T05:40:08;17.10;73.40
2226;DHT22;1119;48.288;8.726;2022-07-06T05:42:36;17.10;72.60
2226;DHT22;1119;48.288;8.726;2022-07-06T05:45:05;17.10;72.90
2226;DHT22;1119;48.288;8.726;2022-07-06T05:47:32;17.10;73.50
2226;DHT22;1119;48.288;8.726;2022-07-06T05:50:19;17.10;74.00
2226;DHT22;1119;48.288;8.726;2022-07-06T05:52:58;17.10;72.90
2226;DHT22;1119;48.288;8.726;2022-07-06T05:55:28;17.20;73.30
2226;DHT22;1119;48.288;8.726;2022-07-06T05:57:58;17.20;72.10
2226;DHT22;1119;48.288;8.726;2022-07-06T06:00:28;17.20;74.40
2226;DHT22;1119;48.288;8.726;2022-07-06T06:03:00;17.20;75.90
2226;DHT22;1119;48.288;8.726;2022-07-06T06:05:29;17.20;74.50
2226;DHT22;1119;48.288;8.726;2022-07-06T06:08:02;17.20;75.60
2226;DHT22;1119;48.288;8.726;2022-07-06T06:10:29;17.20;75.80
2226;DHT22;1119;48.288;8.726;2022-07-06T06:12:59;17.30;76.10
2226;DHT22;1119;48.288;8.726;2022-07-06T06:15:27;17.30;75.90
2226;DHT22;1119;48.288;8.726;2022-07-06T06:17:54;17.30;75.50
2226;DHT22;1119;48.288;8.726;2022-07-06T06:20:21;17.40;75.00
2226;DHT22;1119;48.288;8.726;2022-07-06T06:22:51;17.40;75.50
2226;DHT22;1119;48.288;8.726;2022-07-06T06:25:21;17.50;75.80
2226;DHT22;1119;48.288;8.726;2022-07-06T06:27:55;17.60;76.30
2226;DHT22;1119;48.288;8.726;2022-07-06T06:30:22;17.60;75.90
2226;DHT22;1119;48.288;8.726;2022-07-06T06:32:49;17.60;75.60
2226;DHT22;1119;48.288;8.726;2022-07-06T06:35:17;17.60;76.40
2226;DHT22;1119;48.288;8.726;2022-07-06T06:37:44;17.70;77.00
2226;DHT22;1119;48.288;8.726;2022-07-06T06:40:12;17.70;75.20
2226;DHT22;1119;48.288;8.726;2022-07-06T06:42:39;17.80;76.20
2226;DHT22;1119;48.288;8.726;2022-07-06T06:45:11;17.80;76.10
2226;DHT22;1119;48.288;8.726;2022-07-06T06:47:38;18.00;75.70
2226;DHT22;1119;48.288;8.726;2022-07-06T06:50:06;18.50;75.20
2226;DHT22;1119;48.288;8.726;2022-07-06T06:52:33;19.10;71.80
2226;DHT22;1119;48.288;8.726;2022-07-06T06:55:01;19.90;71.30
2226;DHT22;1119;48.288;8.726;2022-07-06T06:57:29;20.50;68.20
2226;DHT22;1119;48.288;8.726;2022-07-06T06:59:56;21.00;65.60
2226;DHT22;1119;48.288;8.726;2022-07-06T07:02:24;21.30;65.10
2226;DHT22;1119;48.288;8.726;2022-07-06T07:04:51;21.70;64.40
2226;DHT22;1119;48.288;8.726;2022-07-06T07:07:18;21.90;61.10
2226;DHT22;1119;48.288;8.726;2022-07-06T07:09:45;22.20;62.10
2226;DHT22;1119;48.288;8.726;2022-07-06T07:12:12;22.20;62.30
2226;DHT22;1119;48.288;8.726;2022-07-06T07:14:42;22.40;60.70
2226;DHT22;1119;48.288;8.726;2022-07-06T07:17:09;22.50;60.60
2226;DHT22;1119;48.288;8.726;2022-07-06T07:19:37;22.60;61.10
2226;DHT22;1119;48.288;8.726;2022-07-06T07:22:04;22.70;59.50
2226;DHT22;1119;48.288;8.726;2022-07-06T07:24:32;22.80;59.60
2226;DHT22;1119;48.288;8.726;2022-07-06T07:26:59;22.70;59.30
2226;DHT22;1119;48.288;8.726;2022-07-06T07:29:26;22.60;59.70
2226;DHT22;1119;48.288;8.726;2022-07-06T07:31:55;22.60;59.70
2226;DHT22;1119;48.288;8.726;2022-07-06T07:34:22;22.50;60.10
2226;DHT22;1119;48.288;8.726;2022-07-06T07:36:49;22.50;59.70
2226;DHT22;1119;48.288;8.726;2022-07-06T07:39:16;22.60;59.50
2226;DHT22;1119;48.288;8.726;2022-07-06T07:41:43;22.80;59.90
2226;DHT22;1119;48.288;8.726;2022-07-06T07:44:11;22.80;58.40
2226;DHT22;1119;48.288;8.726;2022-07-06T07:46:38;22.90;59.30
2226;DHT22;1119;48.288;8.726;2022-07-06T07:49:06;22.80;60.20
2226;DHT22;1119;48.288;8.726;2022-07-06T07:51:34;22.60;59.10
2226;DHT22;1119;48.288;8.726;2022-07-06T07:54:02;22.50;59.40
2226;DHT22;1119;48.288;8.726;2022-07-06T07:56:29;22.60;59.80
2226;DHT22;1119;48.288;8.726;2022-07-06T07:58:56;22.50;60.30
2226;DHT22;1119;48.288;8.726;2022-07-06T08:01:28;22.30;59.30
2226;DHT22;1119;48.288;8.726;2022-07-06T08:03:55;22.20;59.90
2226;DHT22;1119;48.288;8.726;2022-07-06T08:06:24;21.80;59.50
2226;DHT22;1119;48.288;8.726;2022-07-06T08:08:52;21.80;60.90
2226;DHT22;1119;48.288;8.726;2022-07-06T08:11:19;21.70;60.20
2226;DHT22;1119;48.288;8.726;2022-07-06T08:13:46;22.00;60.90
2226;DHT22;1119;48.288;8.726;2022-07-06T08:16:13;22.40;61.00
2226;DHT22;1119;48.288;8.726;2022-07-06T08:18:40;22.50;59.90
2226;DHT22;1119;48.288;8.726;2022-07-06T08:21:07;22.40;59.30
2226;DHT22;1119;48.288;8.726;2022-07-06T08:23:36;22.20;59.80
2226;DHT22;1119;48.288;8.726;2022-07-06T08:26:03;22.40;60.10
2226;DHT22;1119;48.288;8.726;2022-07-06T08:28:30;22.40;59.00
2226;DHT22;1119;48.288;8.726;2022-07-06T08:30:57;22.40;61.10
2226;DHT22;1119;48.288;8.726;2022-07-06T08:33:24;22.50;61.10
2226;DHT22;1119;48.288;8.726;2022-07-06T08:35:51;22.70;60.00
2226;DHT22;1119;48.288;8.726;2022-07-06T08:38:19;22.70;59.50
2226;DHT22;1119;48.288;8.726;2022-07-06T08:40:49;22.80;58.70
2226;DHT22;1119;48.288;8.726;2022-07-06T08:43:17;23.20;59.90
2226;DHT22;1119;48.288;8.726;2022-07-06T08:45:45;23.30;57.80
2226;DHT22;1119;48.288;8.726;2022-07-06T08:48:12;23.20;57.40
2226;DHT22;1119;48.288;8.726;2022-07-06T08:50:40;22.80;57.50
2226;DHT22;1119;48.288;8.726;2022-07-06T08:53:07;22.60;58.90
2226;DHT22;1119;48.288;8.726;2022-07-06T08:55:34;22.70;59.80
2226;DHT22;1119;48.288;8.726;2022-07-06T08:58:03;22.80;59.70
2226;DHT22;1119;48.288;8.726;2022-07-06T09:00:32;23.00;58.90
2226;DHT22;1119;48.288;8.726;2022-07-06T09:03:00;23.30;59.40
2226;DHT22;1119;48.288;8.726;2022-07-06T09:05:28;23.30;57.20
2226;DHT22;1119;48.288;8.726;2022-07-06T09:07:56;23.30;57.00
2226;DHT22;1119;48.288;8.726;2022-07-06T09:10:23;23.50;57.20
2226;DHT22;1119;48.288;8.726;2022-07-06T09:12:51;23.70;56.90
2226;DHT22;1119;48.288;8.726;2022-07-06T09:15:23;23.90;56.70
2226;DHT22;1119;48.288;8.726;2022-07-06T09:17:56;24.10;56.40
2226;DHT22;1119;48.288;8.726;2022-07-06T09:20:24;24.30;56.10
2226;DHT22;1119;48.288;8.726;2022-07-06T09:22:57;24.20;55.40
2226;DHT22;1119;48.288;8.726;2022-07-06T09:25:26;24.30;56.60
2226;DHT22;1119;48.288;8.726;2022-07-06T09:27:55;24.10;55.60
2226;DHT22;1119;48.288;8.726;2022-07-06T09:30:26;24.10;55.90
2226;DHT22;1119;48.288;8.726;2022-07-06T09:32:54;23.90;55.60
2226;DHT22;1119;48.288;8.726;2022-07-06T09:35:23;23.80;55.00
2226;DHT22;1119;48.288;8.726;2022-07-06T09:38:03;23.80;55.10
2226;DHT22;1119;48.288;8.726;2022-07-06T09:40:32;23.90;54.60
2226;DHT22;1119;48.288;8.726;2022-07-06T09:43:12;24.00;55.30
2226;DHT22;1119;48.288;8.726;2022-07-06T09:45:43;24.00;54.80
2226;DHT22;1119;48.288;8.726;2022-07-06T09:48:13;24.00;55.40
2226;DHT22;1119;48.288;8.726;2022-07-06T09:50:45;24.20;55.70
2226;DHT22;1119;48.288;8.726;2022-07-06T09:53:14;24.50;55.10
2226;DHT22;1119;48.288;8.726;2022-07-06T09:55:45;24.50;53.50
2226;DHT22;1119;48.288;8.726;2022-07-06T09:58:12;24.50;55.00
2226;DHT22;1119;48.288;8.726;2022-07-06T10:00:41;24.40;52.70
2226;DHT22;1119;48.288;8.726;2022-07-06T10:03:10;24.50;53.50
2226;DHT22;1119;48.288;8.726;2022-07-06T10:05:39;24.50;54.20
2226;DHT22;1119;48.288;8.726;2022-07-06T10:08:08;24.70;53.80
2226;DHT22;1119;48.288;8.726;2022-07-06T10:10:36;24.90;54.30
2226;DHT22;1119;48.288;8.726;2022-07-06T10:13:05;25.20;52.30
2226;DHT22;1119;48.288;8.726;2022-07-06T10:15:34;25.20;52.90
2226;DHT22;1119;48.288;8.726;2022-07-06T10:18:05;25.10;52.80
2226;DHT22;1119;48.288;8.726;2022-07-06T10:20:35;24.90;54.80
2226;DHT22;1119;48.288;8.726;2022-07-06T10:23:05;24.50;53.00
2226;DHT22;1119;48.288;8.726;2022-07-06T10:25:34;24.30;52.90
2226;DHT22;1119;48.288;8.726;2022-07-06T10:28:02;24.30;54.20
2226;DHT22;1119;48.288;8.726;2022-07-06T10:30:37;24.40;53.50
2226;DHT22;1119;48.288;8.726;2022-07-06T10:33:06;24.30;52.50
2226;DHT22;1119;48.288;8.726;2022-07-06T10:35:33;24.10;51.00
2226;DHT22;1119;48.288;8.726;2022-07-06T10:38:05;24.10;53.00
2226;DHT22;1119;48.288;8.726;2022-07-06T10:40:33;24.20;53.70
2226;DHT22;1119;48.288;8.726;2022-07-06T10:43:17;24.40;53.30
2226;DHT22;1119;48.288;8.726;2022-07-06T10:45:51;24.70;51.50
2226;DHT22;1119;48.288;8.726;2022-07-06T10:48:21;25.00;52.50
2226;DHT22;1119;48.288;8.726;2022-07-06T10:50:53;25.20;51.30
2226;DHT22;1119;48.288;8.726;2022-07-06T10:53:23;25.30;50.60
2226;DHT22;1119;48.288;8.726;2022-07-06T10:55:52;25.40;50.50
2226;DHT22;1119;48.288;8.726;2022-07-06T10:58:38;25.50;50.80
2226;DHT22;1119;48.288;8.726;2022-07-06T11:01:07;25.20;49.20
2226;DHT22;1119;48.288;8.726;2022-07-06T11:03:39;25.00;50.20
2226;DHT22;1119;48.288;8.726;2022-07-06T11:06:09;24.90;50.80
2226;DHT22;1119;48.288;8.726;2022-07-06T11:08:54;24.80;51.50
2226;DHT22;1119;48.288;8.726;2022-07-06T11:11:24;24.70;51.20
2226;DHT22;1119;48.288;8.726;2022-07-06T11:13:59;24.80;51.70
2226;DHT22;1119;48.288;8.726;2022-07-06T11:16:29;25.00;50.90
2226;DHT22;1119;48.288;8.726;2022-07-06T11:19:03;25.30;50.20
2226;DHT22;1119;48.288;8.726;2022-07-06T11:21:37;25.10;48.50
2226;DHT22;1119;48.288;8.726;2022-07-06T11:24:12;24.80;50.10
2226;DHT22;1119;48.288;8.726;2022-07-06T11:26:41;24.90;51.10
2226;DHT22;1119;48.288;8.726;2022-07-06T11:29:11;24.70;52.30
2226;DHT22;1119;48.288;8.726;2022-07-06T11:31:39;24.60;52.70
2226;DHT22;1119;48.288;8.726;2022-07-06T11:34:10;24.50;52.60
2226;DHT22;1119;48.288;8.726;2022-07-06T11:36:38;24.60;52.50
2226;DHT22;1119;48.288;8.726;2022-07-06T11:39:06;24.80;51.80
2226;DHT22;1119;48.288;8.726;2022-07-06T11:41:34;24.90;51.20
2226;DHT22;1119;48.288;8.726;2022-07-06T11:44:03;25.20;50.40
2226;DHT22;1119;48.288;8.726;2022-07-06T11:46:31;25.40;49.90
2226;DHT22;1119;48.288;8.726;2022-07-06T11:49:00;25.60;49.30
2226;DHT22;1119;48.288;8.726;2022-07-06T11:51:32;25.90;49.00
2226;DHT22;1119;48.288;8.726;2022-07-06T11:54:02;26.20;48.50
2226;DHT22;1119;48.288;8.726;2022-07-06T11:56:35;26.50;45.60
2226;DHT22;1119;48.288;8.726;2022-07-06T11:59:03;26.80;45.30
2226;DHT22;1119;48.288;8.726;2022-07-06T12:01:31;27.10;46.00
2226;DHT22;1119;48.288;8.726;2022-07-06T12:03:59;27.20;44.90
2226;DHT22;1119;48.288;8.726;2022-07-06T12:06:30;27.20;46.00
2226;DHT22;1119;48.288;8.726;2022-07-06T12:08:59;26.90;45.50
2226;DHT22;1119;48.288;8.726;2022-07-06T12:11:31;26.60;44.80
2226;DHT22;1119;48.288;8.726;2022-07-06T12:14:01;26.40;44.80
2226;DHT22;1119;48.288;8.726;2022-07-06T12:16:30;26.30;44.00
2226;DHT22;1119;48.288;8.726;2022-07-06T12:19:00;26.10;45.10
2226;DHT22;1119;48.288;8.726;2022-07-06T12:21:29;26.00;47.30
2226;DHT22;1119;48.288;8.726;2022-07-06T12:23:57;26.10;49.10
2226;DHT22;1119;48.288;8.726;2022-07-06T12:26:26;26.00;47.80
2226;DHT22;1119;48.288;8.726;2022-07-06T12:29:03;25.70;48.60
2226;DHT22;1119;48.288;8.726;2022-07-06T12:31:36;25.60;49.30
2226;DHT22;1119;48.288;8.726;2022-07-06T12:34:05;25.40;49.30
2226;DHT22;1119;48.288;8.726;2022-07-06T12:36:44;25.00;50.60
2226;DHT22;1119;48.288;8.726;2022-07-06T12:39:12;24.50;51.90
2226;DHT22;1119;48.288;8.726;2022-07-06T12:41:45;24.10;54.20
2226;DHT22;1119;48.288;8.726;2022-07-06T12:44:15;24.10;53.80
2226;DHT22;1119;48.288;8.726;2022-07-06T12:46:43;24.00;54.20
2226;DHT22;1119;48.288;8.726;2022-07-06T12:49:16;23.70;54.50
2226;DHT22;1119;48.288;8.726;2022-07-06T12:51:55;23.50;54.40
2226;DHT22;1119;48.288;8.726;2022-07-06T12:54:25;23.10;55.90
2226;DHT22;1119;48.288;8.726;2022-07-06T12:57:11;23.10;57.00
2226;DHT22;1119;48.288;8.726;2022-07-06T12:59:41;23.10;57.50
2226;DHT22;1119;48.288;8.726;2022-07-06T13:02:18;23.40;57.90
2226;DHT22;1119;48.288;8.726;2022-07-06T13:04:58;23.80;56.00
2226;DHT22;1119;48.288;8.726;2022-07-06T13:07:29;23.70;56.60
2226;DHT22;1119;48.288;8.726;2022-07-06T13:09:58;23.60;56.20
2226;DHT22;1119;48.288;8.726;2022-07-06T13:12:25;23.40;56.30
2226;DHT22;1119;48.288;8.726;2022-07-06T13:14:53;23.30;57.70
2226;DHT22;1119;48.288;8.726;2022-07-06T13:17:20;23.40;58.50
2226;DHT22;1119;48.288;8.726;2022-07-06T13:19:47;23.60;57.70
2226;DHT22;1119;48.288;8.726;2022-07-06T13:22:14;23.80;56.30
2226;DHT22;1119;48.288;8.726;2022-07-06T13:24:43;23.90;55.30
2226;DHT22;1119;48.288;8.726;2022-07-06T13:27:10;24.00;56.10
2226;DHT22;1119;48.288;8.726;2022-07-06T13:29:38;24.10;54.10
2226;DHT22;1119;48.288;8.726;2022-07-06T13:32:06;24.10;53.20
2226;DHT22;1119;48.288;8.726;2022-07-06T13:34:33;24.30;53.50
2226;DHT22;1119;48.288;8.726;2022-07-06T13:37:01;24.50;52.40
2226;DHT22;1119;48.288;8.726;2022-07-06T13:39:29;24.70;52.50
2226;DHT22;1119;48.288;8.726;2022-07-06T13:41:58;25.00;52.70
2226;DHT22;1119;48.288;8.726;2022-07-06T13:44:25;25.10;52.70
2226;DHT22;1119;48.288;8.726;2022-07-06T13:46:52;25.00;54.30
2226;DHT22;1119;48.288;8.726;2022-07-06T13:49:19;25.00;55.20
2226;DHT22;1119;48.288;8.726;2022-07-06T13:51:46;25.20;56.20
2226;DHT22;1119;48.288;8.726;2022-07-06T13:54:14;25.20;55.80
2226;DHT22;1119;48.288;8.726;2022-07-06T13:56:41;25.10;55.00
2226;DHT22;1119;48.288;8.726;2022-07-06T13:59:09;24.90;54.80
2226;DHT22;1119;48.288;8.726;2022-07-06T14:01:36;24.80;55.70
2226;DHT22;1119;48.288;8.726;2022-07-06T14:04:03;24.50;56.00
2226;DHT22;1119;48.288;8.726;2022-07-06T14:06:31;24.20;56.60
2226;DHT22;1119;48.288;8.726;2022-07-06T14:08:58;24.10;57.90
2226;DHT22;1119;48.288;8.726;2022-07-06T14:11:25;24.00;56.80
2226;DHT22;1119;48.288;8.726;2022-07-06T14:13:52;23.90;56.70
2226;DHT22;1119;48.288;8.726;2022-07-06T14:16:20;23.90;56.50
2226;DHT22;1119;48.288;8.726;2022-07-06T14:18:48;23.80;57.60
2226;DHT22;1119;48.288;8.726;2022-07-06T14:21:15;23.70;58.20
2226;DHT22;1119;48.288;8.726;2022-07-06T14:23:42;23.70;58.90
2226;DHT22;1119;48.288;8.726;2022-07-06T14:26:09;23.60;59.60
2226;DHT22;1119;48.288;8.726;2022-07-06T14:28:36;23.40;59.50
2226;DHT22;1119;48.288;8.726;2022-07-06T14:31:03;23.30;58.50
2226;DHT22;1119;48.288;8.726;2022-07-06T14:33:32;23.30;59.60
2226;DHT22;1119;48.288;8.726;2022-07-06T14:35:59;23.20;60.00
2226;DHT22;1119;48.288;8.726;2022-07-06T14:38:26;23.00;59.60
2226;DHT22;1119;48.288;8.726;2022-07-06T14:40:54;22.90;60.20
2226;DHT22;1119;48.288;8.726;2022-07-06T14:43:21;22.70;61.50
2226;DHT22;1119;48.288;8.726;2022-07-06T14:45:48;22.60;62.50
2226;DHT22;1119;48.288;8.726;2022-07-06T14:48:15;22.50;62.60
2226;DHT22;1119;48.288;8.726;2022-07-06T14:50:44;22.40;62.30
2226;DHT22;1119;48.288;8.726;2022-07-06T14:53:11;22.30;61.70
2226;DHT22;1119;48.288;8.726;2022-07-06T14:55:38;22.20;62.40
2226;DHT22;1119;48.288;8.726;2022-07-06T14:58:05;22.20;63.30
2226;DHT22;1119;48.288;8.726;2022-07-06T15:00:32;22.10;61.90
2226;DHT22;1119;48.288;8.726;2022-07-06T15:02:59;22.10;63.20
2226;DHT22;1119;48.288;8.726;2022-07-06T15:05:26;22.00;63.50
2226;DHT22;1119;48.288;8.726;2022-07-06T15:07:55;22.00;62.30
2226;DHT22;1119;48.288;8.726;2022-07-06T15:10:22;22.10;62.70
2226;DHT22;1119;48.288;8.726;2022-07-06T15:12:49;22.20;63.30
2226;DHT22;1119;48.288;8.726;2022-07-06T15:15:16;22.40;63.90
2226;DHT22;1119;48.288;8.726;2022-07-06T15:17:44;22.40;62.20
2226;DHT22;1119;48.288;8.726;2022-07-06T15:20:11;22.50;60.20
2226;DHT22;1119;48.288;8.726;2022-07-06T15:22:38;22.50;59.80
2226;DHT22;1119;48.288;8.726;2022-07-06T15:25:09;22.50;61.30
2226;DHT22;1119;48.288;8.726;2022-07-06T15:27:36;22.60;60.60
2226;DHT22;1119;48.288;8.726;2022-07-06T15:30:03;22.60;61.10
2226;DHT22;1119;48.288;8.726;2022-07-06T15:32:31;22.60;60.60
2226;DHT22;1119;48.288;8.726;2022-07-06T15:34:58;22.70;59.90
2226;DHT22;1119;48.288;8.726;2022-07-06T15:37:25;22.60;59.80
2226;DHT22;1119;48.288;8.726;2022-07-06T15:39:53;22.60;59.60
2226;DHT22;1119;48.288;8.726;2022-07-06T15:42:21;22.70;59.60
2226;DHT22;1119;48.288;8.726;2022-07-06T15:44:50;22.80;59.10
2226;DHT22;1119;48.288;8.726;2022-07-06T15:47:18;22.80;58.40
2226;DHT22;1119;48.288;8.726;2022-07-06T15:49:48;22.90;57.50
2226;DHT22;1119;48.288;8.726;2022-07-06T15:52:15;23.00;58.10
2226;DHT22;1119;48.288;8.726;2022-07-06T15:54:42;23.10;57.60
2226;DHT22;1119;48.288;8.726;2022-07-06T15:57:10;23.20;57.50
2226;DHT22;1119;48.288;8.726;2022-07-06T15:59:38;23.20;56.70
2226;DHT22;1119;48.288;8.726;2022-07-06T16:02:05;23.30;57.30
2226;DHT22;1119;48.288;8.726;2022-07-06T16:04:32;23.40;56.80
2226;DHT22;1119;48.288;8.726;2022-07-06T16:06:59;23.60;56.30
2226;DHT22;1119;48.288;8.726;2022-07-06T16:09:26;23.60;56.20
2226;DHT22;1119;48.288;8.726;2022-07-06T16:11:53;23.50;57.00